Avilla, IN

2:53 AM EDT on July 29, 2015 (GMT -0400)
APRSWXNET | | Change Station
CLOSE
Current Station
Personal Weather Station
Location: Avilla, IN
Elevation: 1000 ft
Nearby Weather Stations
Active Advisory: Flood Warning

Elev 1000 ft 41.40 °N, 85.20 °W | Updated 30 minutes ago

Partly Cloudy
Partly Cloudy
73 °F
Feels Like 73 °F
N
1
Wind Variable Wind from SE
Gusts 4.0 mph

Today
High -- | Low -- °F
--% Chance of Precip.
Yesterday
High -- | Low -- °F
Precip. -- in
6:32 AM 9:01 PM
Waxing Gibbous, 94% visible
Pressure 29.99 in
Visibility 10.0 miles
Clouds Scattered Clouds 6500 ft
Heat Index 73 °F
Dew Point 67 °F
Humidity 82%
Rainfall in
Snow Depth Not available.
UV 0 out of 12
Pollen 6.30 out of 12
Air Quality Not available.
Flu Activity Not available.
METAR KGWB 290635Z AUTO 00000KT 10SM SCT065 22/18 A2999 RMK AO2

More Conditions Fewer Conditions

Pressure 29.99 in
Visibility 10.0 miles
Clouds Scattered Clouds 6500 ft
Heat Index 73 °F
Dew Point 67 °F
Humidity 82%
Rainfall in
Snow Depth Not available.
UV 0 out of 12
Pollen 6.30 out of 12
Air Quality Not available.
Flu Activity Not available.
METAR KGWB 290635Z AUTO 00000KT 10SM SCT065 22/18 A2999 RMK AO2

More Conditions Fewer Conditions

10-Day Weather Forecast

×

Almanac

Astronomy

Jul. 29, 2015 Rise Set
Actual Time
Civil Twilight
Nautical Twilight
Astronomical Twilight
Moon
Length of Visible Light
Length of Day
Tomorrow will be .
, % of the Moon is Illuminated

Today's Extremes

State Highs State Lows

Community

WunderPhotos

Upload Photos

1,842,061 photos uploaded!

WunderBlogs® & News

Nearby

Air Quality

  Air Quality AQ Index Pollutant
Not available.

Snow Depth

Station Depth Elevation

Earthquake Activity

City Distance Mag. Time & Date
Minimum magnitude displayed is 2.5.

Coastal Water Temperatures

Place Temperature

Stations

Nearby Weather Stations

Station Location Temp. Windchill Dew Point Humidity Wind Precip. Elev Updated Type
                   
Flood Warning
Statement as of 9:35 AM EDT on July 28, 2015

The Flood Warning continues for
the North Branch Elkhart river at Cosperville
* until further notice.
* At 9 am Tuesday the stage was 7.1 feet and steady.
* Moderate flooding is occurring and moderate flooding is forecast.
* Flood stage is 6.0 feet.
* Forecast... the river will remain near 7.0 feet for the next 12
hours.
* At 7.0 feet... the north end of Lakeview drive is covered by water.
Several houses have water to their foundations on Steinberger Lake
Drive.


Lat... Lon 4150 8570 4152 8568 4149 8559 4150 8544
      4149 8543 4144 8555